Time;durP1;ratioP1;P1;durP2;ratioP2;P2;SDS_P1;SDS_P2;PMS_P1;PMS_P2;Temp;Humidity;BMP_temperature;BMP_pressure;BME280_temperature;BME280_humidity;BME280_pressure;Samples;Min_cycle;Max_cycle;Signal;HPM_P1;HPM_P2
2021/06/06 00:01:41;;;;;;;4.35;3.47;;;;;;;19.16;69.17;98750.31;5043948;28;20323;-67
2021/06/06 00:04:19;;;;;;;3.70;3.40;;;;;;;19.21;68.90;98750.06;5041036;28;20035;-67
2021/06/06 00:06:45;;;;;;;4.10;3.70;;;;;;;19.12;68.83;98752.22;5044070;28;20049;-67
2021/06/06 00:09:14;;;;;;;3.42;3.17;;;;;;;19.20;69.01;98754.41;5042064;28;20124;-67
2021/06/06 00:11:46;;;;;;;4.07;3.78;;;;;;;19.22;68.46;98757.81;5040557;28;20032;-67
2021/06/06 00:14:20;;;;;;;3.17;2.95;;;;;;;19.11;69.02;98742.75;5041752;28;20112;-67
2021/06/06 00:16:49;;;;;;;3.40;3.10;;;;;;;19.16;69.07;98745.94;5043160;28;20347;-68
2021/06/06 00:19:17;;;;;;;3.17;2.90;;;;;;;19.16;69.05;98742.50;5057543;28;20052;-67
2021/06/06 00:21:42;;;;;;;5.07;2.53;;;;;;;19.13;69.22;98737.47;5042141;28;20047;-67
2021/06/06 00:24:12;;;;;;;3.13;2.90;;;;;;;19.06;69.74;98736.94;5042260;28;20371;-67
2021/06/06 00:26:38;;;;;;;2.78;2.58;;;;;;;19.01;69.90;98740.72;5041606;28;20436;-67
2021/06/06 00:29:04;;;;;;;2.70;2.60;;;;;;;19.05;70.19;98735.25;5042700;28;20041;-67
2021/06/06 00:31:30;;;;;;;3.42;3.22;;;;;;;19.00;70.06;98747.66;5043691;28;20048;-67
2021/06/06 00:33:56;;;;;;;3.53;2.50;;;;;;;18.97;70.46;98736.56;5041747;28;20025;-67
2021/06/06 00:36:22;;;;;;;3.40;3.10;;;;;;;18.91;71.03;98740.34;5044141;28;20294;-67
2021/06/06 00:38:48;;;;;;;3.25;2.80;;;;;;;18.96;70.86;98742.69;5038360;28;20033;-67
2021/06/06 00:41:17;;;;;;;2.85;2.72;;;;;;;18.90;71.24;98743.84;5042817;28;20041;-67
2021/06/06 00:43:42;;;;;;;2.63;2.42;;;;;;;18.86;71.52;98739.72;5041353;28;20036;-67
2021/06/06 00:46:09;;;;;;;3.13;2.90;;;;;;;18.89;71.42;98733.50;5043325;28;20033;-67
2021/06/06 00:48:35;;;;;;;2.85;2.65;;;;;;;18.83;71.67;98737.28;5045724;28;20068;-67
2021/06/06 00:51:28;;;;;;;3.60;2.75;;;;;;;18.88;71.78;98737.06;5042940;28;20371;-68
2021/06/06 00:54:36;;;;;;;2.40;2.30;;;;;;;18.87;71.71;98735.38;5040888;28;20040;-68
2021/06/06 00:57:09;;;;;;;2.67;2.47;;;;;;;18.81;72.17;98730.47;5039950;28;20084;-68
2021/06/06 00:59:38;;;;;;;2.70;2.38;;;;;;;18.74;71.82;98735.16;5040985;28;20040;-67
2021/06/06 01:02:07;;;;;;;2.55;2.35;;;;;;;18.66;72.38;98726.91;5041659;28;20124;-68
2021/06/06 01:04:33;;;;;;;2.70;2.60;;;;;;;18.73;72.52;98727.41;5042462;28;20020;-67
2021/06/06 01:06:58;;;;;;;2.47;2.38;;;;;;;18.72;72.21;98731.78;5040441;28;20730;-67
2021/06/06 01:09:25;;;;;;;2.22;2.13;;;;;;;18.65;72.91;98735.59;5042447;28;20039;-68
2021/06/06 01:12:04;;;;;;;2.22;2.13;;;;;;;18.69;72.13;98737.97;5041398;28;20437;-67
2021/06/06 01:15:02;;;;;;;2.17;2.08;;;;;;;18.74;71.87;98729.94;5041746;28;20294;-67
2021/06/06 01:17:34;;;;;;;2.00;1.90;;;;;;;18.70;72.25;98739.66;5002277;28;20054;-67
2021/06/06 01:20:12;;;;;;;2.10;1.95;;;;;;;18.68;72.33;98731.09;5003447;28;20053;-67
2021/06/06 01:22:50;;;;;;;1.98;1.88;;;;;;;18.66;71.77;98732.09;5004601;28;20491;-67
2021/06/06 01:25:24;;;;;;;2.03;1.92;;;;;;;18.67;71.61;98738.97;5004779;28;20069;-67
2021/06/06 01:27:57;;;;;;;3.28;1.90;;;;;;;18.64;72.25;98739.09;5001971;28;20312;-67
2021/06/06 01:30:29;;;;;;;2.20;2.10;;;;;;;18.65;72.00;98735.59;5006203;28;20034;-67
2021/06/06 01:33:01;;;;;;;2.10;1.90;;;;;;;18.56;72.26;98742.09;5001292;28;20133;-67
2021/06/06 01:35:27;;;;;;;1.63;1.63;;;;;;;18.50;72.40;98736.34;5004833;28;20050;-67
2021/06/06 01:37:59;;;;;;;1.85;1.75;;;;;;;18.49;72.32;98745.03;5008986;28;20350;-67
2021/06/06 01:40:28;;;;;;;2.13;2.03;;;;;;;18.50;71.75;98746.72;5006810;28;20030;-67
2021/06/06 01:43:01;;;;;;;2.42;1.60;;;;;;;18.48;71.74;98748.53;5005196;28;20121;-67
2021/06/06 01:45:33;;;;;;;1.58;1.58;;;;;;;18.46;72.17;98750.41;5005066;28;20036;-67
2021/06/06 01:48:04;;;;;;;1.90;1.80;;;;;;;18.36;72.30;98751.75;5004860;28;20046;-67
2021/06/06 01:50:34;;;;;;;1.52;1.52;;;;;;;18.31;72.15;98735.53;4993099;28;20160;-68
2021/06/06 01:53:02;;;;;;;2.00;1.90;;;;;;;18.33;72.20;98737.13;5005409;28;20045;-68
2021/06/06 01:55:32;;;;;;;1.73;1.63;;;;;;;18.27;72.44;98742.66;5041859;28;20481;-67
2021/06/06 01:58:02;;;;;;;2.17;1.83;;;;;;;18.29;72.09;98750.38;5045898;28;20039;-68
2021/06/06 02:00:45;;;;;;;1.85;1.75;;;;;;;18.25;71.87;98752.25;5044844;28;20116;-67
2021/06/06 02:03:11;;;;;;;1.60;1.50;;;;;;;18.21;71.96;98756.75;5042024;28;20153;-67
2021/06/06 02:05:36;;;;;;;1.50;1.42;;;;;;;18.22;71.75;98763.63;5044579;28;20124;-68
2021/06/06 02:08:06;;;;;;;1.83;1.73;;;;;;;18.19;71.81;98765.53;5044577;28;20061;-67
2021/06/06 02:10:38;;;;;;;3.05;1.85;;;;;;;18.14;72.25;98764.91;5044057;28;20033;-67
2021/06/06 02:13:11;;;;;;;3.47;1.75;;;;;;;18.06;72.52;98778.25;5044318;28;20037;-68
2021/06/06 02:15:39;;;;;;;1.40;1.40;;;;;;;18.14;72.01;98778.72;5045542;28;20381;-67
2021/06/06 02:18:07;;;;;;;1.70;1.60;;;;;;;18.10;71.90;98774.59;5045641;28;20030;-67
2021/06/06 02:20:45;;;;;;;1.30;1.30;;;;;;;18.07;72.07;98802.44;5050862;28;20061;-68
2021/06/06 02:23:14;;;;;;;1.40;1.40;;;;;;;18.08;71.77;98776.41;5058004;28;20029;-68
2021/06/06 02:25:39;;;;;;;1.25;1.25;;;;;;;18.05;71.67;98793.88;5044057;28;20044;-68
2021/06/06 02:28:20;;;;;;;1.50;1.40;;;;;;;18.12;71.36;98788.31;5052395;28;20025;-69
2021/06/06 02:31:09;;;;;;;1.40;1.40;;;;;;;18.06;71.19;98792.97;5044037;28;20048;-68
2021/06/06 02:33:43;;;;;;;1.50;1.40;;;;;;;18.06;71.36;98793.81;5044275;28;20186;-68
2021/06/06 02:36:11;;;;;;;1.77;1.40;;;;;;;18.02;71.36;98797.47;5046018;28;20072;-68
2021/06/06 02:38:39;;;;;;;1.35;1.35;;;;;;;17.98;71.18;98795.94;5043030;28;20177;-68
2021/06/06 02:41:26;;;;;;;1.35;1.35;;;;;;;18.03;71.12;98796.56;5043730;28;20406;-68
2021/06/06 02:44:10;;;;;;;1.63;1.50;;;;;;;18.06;70.73;98788.63;5042819;28;20428;-68
2021/06/06 02:46:38;;;;;;;1.30;1.30;;;;;;;17.94;71.19;98778.81;5041410;28;20037;-68
2021/06/06 02:49:09;;;;;;;1.83;1.75;;;;;;;18.04;70.82;98794.78;5046071;28;20295;-68
2021/06/06 02:51:41;;;;;;;1.40;1.40;;;;;;;18.03;70.67;98804.34;5043933;28;20036;-67
2021/06/06 02:54:11;;;;;;;2.22;1.30;;;;;;;17.98;71.08;98795.94;5042936;28;20060;-68
2021/06/06 02:56:42;;;;;;;1.17;1.17;;;;;;;17.99;71.04;98802.78;5042488;28;20044;-68
2021/06/06 02:59:16;;;;;;;1.33;1.33;;;;;;;17.98;70.80;98792.50;5042673;28;20078;-68
2021/06/06 03:01:47;;;;;;;1.52;1.40;;;;;;;17.99;70.60;98794.19;5041440;28;20729;-68
2021/06/06 03:04:18;;;;;;;1.48;1.48;;;;;;;17.97;71.03;98794.25;5042403;28;20029;-67
2021/06/06 03:07:03;;;;;;;1.40;1.30;;;;;;;17.97;70.87;98791.63;5040133;28;20382;-67
2021/06/06 03:09:29;;;;;;;1.70;1.60;;;;;;;17.89;70.98;98792.91;5042524;28;20037;-68
2021/06/06 03:11:58;;;;;;;1.40;1.30;;;;;;;17.89;70.89;98795.50;5040335;28;20049;-68
2021/06/06 03:14:27;;;;;;;2.63;1.33;;;;;;;17.93;70.83;98784.91;5041841;28;20025;-68
2021/06/06 03:16:55;;;;;;;1.33;1.33;;;;;;;17.86;71.02;98791.31;5044919;28;20410;-67
2021/06/06 03:19:24;;;;;;;1.85;1.42;;;;;;;17.90;70.71;98802.38;5042949;28;20041;-67
2021/06/06 03:21:51;;;;;;;1.42;1.42;;;;;;;17.90;70.72;98798.03;5041351;28;20047;-67
2021/06/06 03:24:29;;;;;;;1.30;1.30;;;;;;;17.88;70.98;98799.00;5044908;28;20071;-67
2021/06/06 03:26:56;;;;;;;2.10;2.00;;;;;;;17.88;70.79;98799.00;5040530;28;20286;-67
2021/06/06 03:29:27;;;;;;;9.75;7.82;;;;;;;17.90;70.73;98795.44;5042371;28;20082;-68
2021/06/06 03:32:03;;;;;;;1.30;1.30;;;;;;;17.90;70.93;98798.03;5041043;28;20033;-67
2021/06/06 03:34:30;;;;;;;1.67;1.58;;;;;;;17.86;71.12;98795.66;5043206;28;20029;-67
2021/06/06 03:36:55;;;;;;;1.50;1.40;;;;;;;17.85;71.23;98792.22;5056585;28;20039;-67
2021/06/06 03:39:27;;;;;;;1.20;1.20;;;;;;;17.81;71.21;98793.25;5041845;28;20033;-67
2021/06/06 03:41:59;;;;;;;1.23;1.23;;;;;;;17.87;71.09;98799.91;5041286;28;20037;-68
2021/06/06 03:44:25;;;;;;;1.73;1.73;;;;;;;17.76;71.22;98795.22;5041956;28;20017;-68
2021/06/06 03:46:51;;;;;;;1.45;1.42;;;;;;;17.83;70.96;98800.94;5041607;28;20287;-69
2021/06/06 03:49:18;;;;;;;3.15;1.48;;;;;;;17.82;70.72;98810.50;5043521;28;20063;-68
2021/06/06 03:51:45;;;;;;;1.90;1.83;;;;;;;17.90;70.52;98812.75;5045670;28;20044;-69
2021/06/06 03:54:11;;;;;;;1.40;1.40;;;;;;;17.89;70.38;98811.06;5042056;28;20032;-68
2021/06/06 03:56:39;;;;;;;1.30;1.30;;;;;;;17.85;70.77;98801.75;5045182;28;20040;-68
2021/06/06 03:59:05;;;;;;;1.20;1.20;;;;;;;17.83;70.56;98796.63;5042112;28;20039;-69
2021/06/06 04:01:30;;;;;;;4.72;4.32;;;;;;;17.91;70.38;98801.47;5042435;28;20021;-69
2021/06/06 04:03:56;;;;;;;7.22;4.22;;;;;;;17.91;70.06;98804.88;5043665;28;20033;-68
2021/06/06 04:06:23;;;;;;;1.40;1.40;;;;;;;17.96;69.89;98799.47;5042138;28;20545;-67
2021/06/06 04:08:48;;;;;;;1.83;1.27;;;;;;;17.95;70.00;98806.41;5041338;28;20033;-67
2021/06/06 04:11:14;;;;;;;1.50;1.50;;;;;;;17.84;70.55;98800.91;5042127;28;20036;-68
2021/06/06 04:13:39;;;;;;;1.48;1.45;;;;;;;17.87;70.34;98802.50;5040985;28;20025;-68
2021/06/06 04:16:05;;;;;;;1.35;1.35;;;;;;;17.84;70.29;98802.66;5041104;28;20040;-67
2021/06/06 04:18:32;;;;;;;1.45;1.45;;;;;;;17.85;70.52;98794.81;5056937;28;20033;-67
2021/06/06 04:21:01;;;;;;;1.40;1.30;;;;;;;17.86;70.42;98801.69;5043933;28;20029;-68
2021/06/06 04:23:27;;;;;;;1.30;1.30;;;;;;;17.83;70.44;98800.94;5043243;28;20061;-69
2021/06/06 04:25:53;;;;;;;1.30;1.30;;;;;;;17.88;70.10;98802.44;5040440;28;20025;-67
2021/06/06 04:28:21;;;;;;;1.20;1.20;;;;;;;17.85;70.33;98802.59;5042967;28;20095;-68
2021/06/06 04:30:47;;;;;;;1.30;1.30;;;;;;;17.88;69.86;98809.38;5043412;28;20620;-67
2021/06/06 04:33:13;;;;;;;1.30;1.30;;;;;;;17.74;70.44;98810.84;5042703;28;20037;-68
2021/06/06 04:35:40;;;;;;;5.70;1.67;;;;;;;17.74;70.51;98807.41;5042895;28;20037;-67
2021/06/06 04:38:08;;;;;;;1.30;1.30;;;;;;;17.83;70.13;98806.13;5042305;28;20064;-68
2021/06/06 04:40:33;;;;;;;1.40;1.40;;;;;;;17.74;70.09;98812.59;5035452;28;20037;-67
2021/06/06 04:43:00;;;;;;;1.38;1.38;;;;;;;17.78;70.07;98821.91;5042219;28;20382;-67
2021/06/06 04:45:26;;;;;;;1.33;1.33;;;;;;;17.76;70.13;98811.63;5041583;28;20057;-67
2021/06/06 04:47:51;;;;;;;1.83;1.73;;;;;;;17.75;70.30;98806.50;5040911;28;20108;-68
2021/06/06 04:50:17;;;;;;;1.92;1.42;;;;;;;17.79;70.18;98810.63;5041557;28;20378;-67
2021/06/06 04:52:44;;;;;;;1.25;1.25;;;;;;;17.73;70.49;98800.56;5040818;28;20466;-67
2021/06/06 04:55:14;;;;;;;1.55;1.42;;;;;;;17.82;70.33;98810.50;5042054;28;20389;-67
2021/06/06 04:57:40;;;;;;;1.30;1.30;;;;;;;17.74;70.48;98813.44;5041907;28;20029;-67
2021/06/06 05:00:15;;;;;;;1.40;1.40;;;;;;;17.74;70.53;98810.00;5058232;28;20075;-67
2021/06/06 05:02:40;;;;;;;1.60;1.50;;;;;;;17.74;70.66;98823.81;5043570;28;20039;-68
2021/06/06 05:05:08;;;;;;;1.38;1.38;;;;;;;17.72;71.21;98819.59;5040461;28;20041;-67
2021/06/06 05:07:33;;;;;;;1.60;1.60;;;;;;;17.75;71.09;98822.06;5040569;28;20049;-68
2021/06/06 05:09:59;;;;;;;1.65;1.60;;;;;;;17.63;71.03;98820.00;5042078;28;20048;-67
2021/06/06 05:12:24;;;;;;;1.80;1.30;;;;;;;17.62;70.86;98826.09;5041998;28;20043;-67
2021/06/06 05:14:49;;;;;;;1.10;1.10;;;;;;;17.63;70.96;98807.06;5041611;28;20041;-67
2021/06/06 05:17:15;;;;;;;2.22;1.30;;;;;;;17.66;70.56;98830.25;5041918;28;20038;-67
2021/06/06 05:19:40;;;;;;;1.50;1.50;;;;;;;17.69;70.73;98817.16;5041351;28;20409;-67
2021/06/06 05:22:05;;;;;;;1.85;1.75;;;;;;;17.60;70.88;98823.59;5042907;28;20048;-67
2021/06/06 05:24:32;;;;;;;1.27;1.27;;;;;;;17.69;70.63;98818.00;5040959;28;20026;-67
2021/06/06 05:26:58;;;;;;;2.17;1.60;;;;;;;17.60;70.61;98807.19;5042414;28;20152;-68
2021/06/06 05:29:23;;;;;;;1.00;1.00;;;;;;;17.75;70.66;98822.91;5042586;28;20026;-67
2021/06/06 05:31:50;;;;;;;1.88;1.40;;;;;;;17.67;70.99;98821.56;5042291;28;20060;-66
2021/06/06 05:34:16;;;;;;;1.45;1.45;;;;;;;17.58;71.22;98825.41;5056106;28;20067;-67
2021/06/06 05:36:42;;;;;;;1.17;1.13;;;;;;;17.65;71.45;98820.81;5040708;28;20389;-67
2021/06/06 05:39:08;;;;;;;2.75;2.55;;;;;;;17.63;71.13;98823.44;5041442;28;20033;-65
2021/06/06 05:41:33;;;;;;;1.35;1.35;;;;;;;17.60;71.12;98828.78;5039744;28;20032;-66
2021/06/06 05:43:59;;;;;;;1.20;1.20;;;;;;;17.71;71.10;98823.09;5042619;28;20032;-64
2021/06/06 05:46:25;;;;;;;1.60;1.17;;;;;;;17.68;71.30;98831.88;5040884;28;20037;-64
2021/06/06 05:48:50;;;;;;;1.27;1.27;;;;;;;17.57;71.65;98833.19;5043011;28;20045;-65
2021/06/06 05:51:18;;;;;;;1.70;1.60;;;;;;;17.58;71.87;98830.59;5039119;28;20044;-66
2021/06/06 05:53:43;;;;;;;1.40;1.40;;;;;;;17.70;71.50;98837.81;5042856;28;20457;-66
2021/06/06 05:56:10;;;;;;;1.33;1.33;;;;;;;17.65;72.18;98836.34;5043047;28;20119;-65
2021/06/06 05:58:36;;;;;;;1.10;1.10;;;;;;;17.59;72.77;98823.66;5040965;28;20029;-67
2021/06/06 06:01:02;;;;;;;4.50;1.40;;;;;;;17.53;73.63;98834.25;5041666;28;20032;-65
2021/06/06 06:03:28;;;;;;;1.75;1.65;;;;;;;17.49;73.96;98832.69;5040491;28;20040;-66
2021/06/06 06:05:54;;;;;;;1.75;1.23;;;;;;;17.43;73.87;98830.38;5040757;28;20124;-66
2021/06/06 06:08:26;;;;;;;1.30;1.30;;;;;;;17.33;74.67;98838.56;5056923;28;20057;-66
2021/06/06 06:10:53;;;;;;;1.77;1.40;;;;;;;17.42;74.78;98847.69;5039904;28;20052;-66
2021/06/06 06:13:21;;;;;;;1.27;1.17;;;;;;;17.31;75.24;98835.16;5039232;28;20579;-66
2021/06/06 06:15:47;;;;;;;1.55;1.42;;;;;;;17.10;75.91;98838.69;5039696;28;20029;-66
2021/06/06 06:18:13;;;;;;;1.42;1.42;;;;;;;17.12;76.29;98830.84;5044929;28;20333;-66
2021/06/06 06:20:39;;;;;;;1.60;1.50;;;;;;;17.08;77.16;98840.50;5039123;28;20087;-66
2021/06/06 06:23:05;;;;;;;1.60;1.50;;;;;;;17.16;77.22;98842.78;5042526;28;20033;-65
2021/06/06 06:25:31;;;;;;;3.65;1.23;;;;;;;17.01;79.03;98846.84;5046401;28;20036;-65
2021/06/06 06:27:56;;;;;;;7.97;1.73;;;;;;;16.61;81.40;98842.44;5060130;28;20358;-67
2021/06/06 06:30:26;;;;;;;4.13;1.45;;;;;;;16.36;83.88;98845.13;5046037;28;20029;-67
2021/06/06 06:32:51;;;;;;;1.48;1.38;;;;;;;16.20;84.69;98846.63;5045078;28;20053;-67
2021/06/06 06:35:17;;;;;;;3.90;1.40;;;;;;;16.11;87.02;98856.47;5046884;28;20480;-66
2021/06/06 06:37:43;;;;;;;1.20;1.20;;;;;;;16.07;87.02;98847.97;5045165;28;20090;-66
2021/06/06 06:40:11;;;;;;;1.88;1.63;;;;;;;16.06;89.23;98861.81;5043067;28;20049;-66
2021/06/06 06:42:37;;;;;;;2.42;1.38;;;;;;;16.03;88.53;98856.75;5044516;28;20378;-66
2021/06/06 06:45:05;;;;;;;1.60;1.50;;;;;;;16.10;88.92;98863.38;5044367;28;20032;-66
2021/06/06 06:47:30;;;;;;;2.67;1.40;;;;;;;16.17;90.49;98857.06;5045969;28;20643;-66
2021/06/06 06:49:57;;;;;;;2.13;1.60;;;;;;;16.17;90.61;98863.97;5043492;28;20052;-67
2021/06/06 06:52:22;;;;;;;2.67;1.60;;;;;;;16.20;90.92;98861.31;5042864;28;20116;-67
2021/06/06 06:54:47;;;;;;;1.95;1.60;;;;;;;16.33;90.42;98847.84;5041433;28;20041;-66
2021/06/06 06:57:13;;;;;;;1.58;1.58;;;;;;;16.35;90.57;98864.13;5041223;28;20083;-67
2021/06/06 06:59:38;;;;;;;2.83;1.75;;;;;;;16.43;90.83;98863.84;5042709;28;20098;-67
2021/06/06 07:02:04;;;;;;;2.10;1.63;;;;;;;16.59;90.48;98858.94;5040944;28;20026;-67
2021/06/06 07:04:31;;;;;;;2.00;1.80;;;;;;;16.59;89.07;98869.31;5040844;28;20029;-67
2021/06/06 07:06:57;;;;;;;1.38;1.27;;;;;;;16.62;88.67;98864.00;5041984;28;20054;-67
2021/06/06 07:09:24;;;;;;;2.53;1.48;;;;;;;16.71;89.42;98864.50;5057193;28;20037;-66
2021/06/06 07:11:50;;;;;;;2.30;1.50;;;;;;;16.71;88.06;98872.25;5043163;28;20115;-66
2021/06/06 07:14:15;;;;;;;1.80;1.70;;;;;;;16.70;87.62;98872.31;5045580;28;20111;-67
2021/06/06 07:16:41;;;;;;;1.63;1.52;;;;;;;16.82;87.85;98875.25;5042291;28;20041;-67
2021/06/06 07:19:07;;;;;;;1.98;1.30;;;;;;;16.86;87.89;98878.53;5043886;28;20033;-66
2021/06/06 07:21:33;;;;;;;1.63;1.52;;;;;;;16.82;86.32;98877.84;5041259;28;20043;-66
2021/06/06 07:23:59;;;;;;;1.13;1.13;;;;;;;16.75;86.66;98873.81;5041630;28;20040;-67
2021/06/06 07:26:33;;;;;;;1.40;1.30;;;;;;;16.89;86.80;98875.81;5047049;28;20029;-67
2021/06/06 07:29:01;;;;;;;1.20;1.20;;;;;;;16.90;86.53;98880.09;5042139;28;20044;-67
2021/06/06 07:31:28;;;;;;;1.08;1.08;;;;;;;16.80;87.05;98876.22;5042542;28;20032;-67
2021/06/06 07:33:54;;;;;;;1.00;1.00;;;;;;;16.74;86.99;98872.13;5042127;28;20275;-68
2021/06/06 07:36:20;;;;;;;1.27;1.27;;;;;;;16.88;86.69;98885.38;5044114;28;20028;-66
2021/06/06 07:38:48;;;;;;;2.22;1.42;;;;;;;16.97;85.50;98885.91;5041492;28;20033;-66
2021/06/06 07:41:15;;;;;;;1.33;1.23;;;;;;;16.97;85.19;98871.19;5042276;28;20044;-65
2021/06/06 07:43:40;;;;;;;2.67;1.42;;;;;;;16.94;85.91;98876.47;5043372;28;20037;-66
2021/06/06 07:46:07;;;;;;;2.55;1.40;;;;;;;17.09;84.85;98870.69;5042104;28;20039;-67
2021/06/06 07:48:33;;;;;;;1.45;1.45;;;;;;;17.28;84.91;98879.38;5043538;28;20076;-67
2021/06/06 07:50:58;;;;;;;1.63;1.52;;;;;;;17.16;84.57;98877.28;5042489;28;20059;-67
2021/06/06 07:53:24;;;;;;;1.50;1.40;;;;;;;17.12;84.53;98882.66;5045307;28;20033;-66
2021/06/06 07:55:52;;;;;;;1.60;1.50;;;;;;;17.25;84.68;98879.50;5043731;28;20051;-66
2021/06/06 07:58:24;;;;;;;1.70;1.60;;;;;;;17.40;83.01;98874.59;5042666;28;20442;-66
2021/06/06 08:00:49;;;;;;;2.58;2.42;;;;;;;17.47;81.65;98876.00;5044892;28;20213;-66
2021/06/06 08:03:15;;;;;;;1.77;1.42;;;;;;;17.41;81.10;98876.25;5043139;28;20029;-66
2021/06/06 08:05:43;;;;;;;1.65;1.30;;;;;;;17.47;80.81;98883.78;5044475;28;20063;-66
2021/06/06 08:08:11;;;;;;;1.20;1.20;;;;;;;17.33;80.41;98879.19;5041699;28;20068;-66
2021/06/06 08:10:41;;;;;;;1.25;1.25;;;;;;;17.38;80.92;98877.25;5057148;28;20044;-66
2021/06/06 08:13:07;;;;;;;1.30;1.30;;;;;;;17.40;80.29;98879.78;5044805;28;20028;-65
2021/06/06 08:15:33;;;;;;;1.20;1.20;;;;;;;17.47;79.62;98886.38;5043869;28;20017;-65
2021/06/06 08:18:04;;;;;;;1.20;1.20;;;;;;;17.56;79.44;98881.66;5042059;28;20128;-65
2021/06/06 08:20:36;;;;;;;1.40;1.40;;;;;;;17.44;79.43;98881.34;5041629;28;20022;-66
2021/06/06 08:23:02;;;;;;;1.20;1.20;;;;;;;17.50;80.04;98881.91;5043341;28;20282;-66
2021/06/06 08:25:28;;;;;;;1.40;1.40;;;;;;;17.54;79.47;98888.63;5042538;28;20281;-65
2021/06/06 08:27:53;;;;;;;1.50;1.50;;;;;;;17.55;79.17;98884.28;5042974;28;20029;-67
2021/06/06 08:30:34;;;;;;;1.38;1.38;;;;;;;17.56;78.20;98891.16;5043477;28;20033;-68
2021/06/06 08:33:00;;;;;;;1.88;1.52;;;;;;;17.51;78.73;98883.59;5043418;28;20032;-67
2021/06/06 08:35:26;;;;;;;1.40;1.40;;;;;;;17.40;78.35;98897.94;5044546;28;20586;-66
2021/06/06 08:37:52;;;;;;;1.45;1.45;;;;;;;17.47;78.97;98895.00;5046181;28;20119;-66
2021/06/06 08:40:47;;;;;;;1.95;1.85;;;;;;;17.46;78.87;98893.31;5042653;28;20025;-66
2021/06/06 08:43:14;;;;;;;1.67;1.60;;;;;;;17.56;78.89;98898.94;5042175;28;20017;-66
2021/06/06 08:45:56;;;;;;;1.90;1.00;;;;;;;17.53;78.69;98904.25;5042255;28;20044;-66
2021/06/06 08:48:24;;;;;;;1.13;1.13;;;;;;;17.58;78.49;98904.94;5048931;28;20033;-67
2021/06/06 08:51:34;;;;;;;1.38;1.33;;;;;;;17.57;77.85;98906.63;5041457;28;20036;-64
2021/06/06 08:54:20;;;;;;;2.55;1.50;;;;;;;17.66;77.51;98905.44;5031901;28;20041;-66
2021/06/06 08:56:47;;;;;;;;;;;;;;;17.62;78.12;98916.84;5039938;28;20471;-67
2021/06/06 08:59:20;;;;;;;1.13;1.13;;;;;;;17.40;79.02;98913.47;5043022;28;19913;-67
2021/06/06 09:01:52;;;;;;;1.23;1.23;;;;;;;17.49;79.16;98916.50;5043544;28;20056;-66
2021/06/06 09:04:22;;;;;;;1.75;1.65;;;;;;;17.53;78.77;98914.63;5042135;28;20024;-66
2021/06/06 09:06:58;;;;;;;1.50;1.50;;;;;;;17.49;79.22;98920.84;5042207;28;20046;-67
2021/06/06 09:09:28;;;;;;;1.17;1.17;;;;;;;17.50;78.83;98918.19;5039953;28;20040;-67
2021/06/06 09:12:02;;;;;;;1.40;1.33;;;;;;;17.53;79.41;98923.25;5040062;28;20087;-66
2021/06/06 09:14:28;;;;;;;1.85;1.75;;;;;;;17.44;81.23;98917.63;5043234;28;20390;-66
2021/06/06 09:17:02;;;;;;;1.90;1.80;;;;;;;17.27;81.58;98921.72;5041077;28;20017;-67
2021/06/06 09:19:50;;;;;;;2.03;1.92;;;;;;;17.13;82.24;98924.06;5041349;28;20033;-67
2021/06/06 09:22:30;;;;;;;1.35;1.25;;;;;;;16.95;83.16;98922.22;5056657;28;20095;-66
2021/06/06 09:25:10;;;;;;;1.63;1.55;;;;;;;17.09;83.69;98917.31;5047516;28;20382;-66
2021/06/06 09:27:36;;;;;;;1.73;1.63;;;;;;;16.89;84.35;98940.56;5042721;28;20033;-66
2021/06/06 09:30:18;;;;;;;1.60;1.52;;;;;;;16.92;84.44;98927.53;5039647;28;20040;-66
2021/06/06 09:32:45;;;;;;;8.18;2.83;;;;;;;16.87;85.01;98932.03;5040658;28;20634;-66
2021/06/06 09:35:36;;;;;;;1.63;1.52;;;;;;;16.93;84.73;98934.38;5039459;28;20076;-66
2021/06/06 09:38:13;;;;;;;1.70;1.60;;;;;;;17.04;85.15;98939.13;5040859;28;20480;-66
2021/06/06 09:40:44;;;;;;;2.47;2.28;;;;;;;17.07;84.57;98929.47;5054990;28;20037;-66
2021/06/06 09:43:28;;;;;;;2.38;2.05;;;;;;;17.24;84.40;98928.81;5040103;28;20341;-64
2021/06/06 09:46:24;;;;;;;1.60;1.50;;;;;;;17.26;84.02;98932.19;5039989;28;20052;-65
2021/06/06 09:48:51;;;;;;;;;;;;;;;17.35;83.18;98927.44;5039704;28;20354;-64
2021/06/06 09:51:26;;;;;;;2.47;2.13;;;;;;;17.44;83.74;98922.81;5041619;28;20454;-65
2021/06/06 09:53:57;;;;;;;1.80;1.70;;;;;;;17.40;83.10;98929.84;5042320;28;20482;-64
2021/06/06 09:56:28;;;;;;;1.60;1.50;;;;;;;17.68;82.68;98932.16;5041671;28;20118;-64
2021/06/06 09:59:15;;;;;;;1.75;1.65;;;;;;;17.72;83.16;98928.53;5043865;28;20361;-64
2021/06/06 10:01:52;;;;;;;2.88;1.80;;;;;;;17.93;81.46;98937.97;5030460;28;20048;-64
2021/06/06 10:04:22;;;;;;;1.90;1.80;;;;;;;17.93;81.57;98943.16;5046141;28;20027;-64
2021/06/06 10:06:49;;;;;;;2.10;2.00;;;;;;;17.92;80.77;98922.47;5043482;28;20119;-65
2021/06/06 10:09:17;;;;;;;1.65;1.55;;;;;;;18.03;80.98;98931.47;5044450;28;20037;-64
2021/06/06 10:12:07;;;;;;;1.92;1.83;;;;;;;18.21;79.76;98942.78;5041314;28;20124;-65
2021/06/06 10:14:41;;;;;;;1.80;1.70;;;;;;;18.25;78.97;98942.56;5044874;28;20409;-65
2021/06/06 10:17:12;;;;;;;1.70;1.60;;;;;;;18.28;79.43;98926.03;5046346;28;20037;-65
2021/06/06 10:19:43;;;;;;;1.77;1.70;;;;;;;18.62;79.28;98943.53;5045439;28;20060;-65
2021/06/06 10:22:24;;;;;;;1.50;1.50;;;;;;;18.88;77.45;98942.31;5043621;28;20033;-65
2021/06/06 10:25:16;;;;;;;1.67;1.63;;;;;;;18.92;77.48;98936.91;5042647;28;20045;-67
2021/06/06 10:27:45;;;;;;;1.92;1.45;;;;;;;18.97;75.71;98940.09;5043508;28;20057;-68
2021/06/06 10:30:16;;;;;;;1.77;1.77;;;;;;;18.95;74.78;98941.09;5047138;28;20026;-69
2021/06/06 10:32:45;;;;;;;1.73;1.63;;;;;;;19.10;75.69;98938.59;5046462;28;20080;-70
2021/06/06 10:35:15;;;;;;;1.60;1.50;;;;;;;18.88;75.10;98945.75;5051920;28;20032;-68
2021/06/06 10:37:46;;;;;;;1.50;1.40;;;;;;;18.93;75.31;98940.31;5047488;28;20060;-69
2021/06/06 10:40:43;;;;;;;1.85;1.75;;;;;;;18.92;75.18;98946.44;5041816;28;20025;-68
2021/06/06 10:43:33;;;;;;;2.25;1.60;;;;;;;19.02;75.21;98948.50;5040446;28;20033;-69
2021/06/06 10:46:10;;;;;;;1.95;1.50;;;;;;;19.01;75.73;98936.44;5044346;28;20029;-69
2021/06/06 10:49:17;;;;;;;1.52;1.52;;;;;;;19.14;75.54;98942.72;5044738;28;20039;-69
2021/06/06 10:51:57;;;;;;;1.60;1.50;;;;;;;19.65;72.69;98935.88;5036349;28;20596;-67
2021/06/06 10:54:30;;;;;;;1.98;1.27;;;;;;;19.66;71.99;98942.75;5044912;28;20320;-68
2021/06/06 10:56:59;;;;;;;1.00;1.00;;;;;;;19.33;72.82;98942.66;5042775;28;20041;-68
2021/06/06 10:59:34;;;;;;;2.00;1.90;;;;;;;19.44;73.89;98934.34;5042535;28;20059;-68
2021/06/06 11:02:02;;;;;;;1.20;1.20;;;;;;;19.31;73.45;98939.28;5043894;28;20021;-69
2021/06/06 11:04:31;;;;;;;1.13;1.13;;;;;;;19.59;73.94;98946.59;5042616;28;20322;-69
2021/06/06 11:07:38;;;;;;;1.50;1.10;;;;;;;19.33;72.55;98937.47;5043641;28;20341;-69
2021/06/06 11:10:19;;;;;;;1.08;1.08;;;;;;;19.84;72.25;98939.22;5034160;28;20366;-69
2021/06/06 11:12:47;;;;;;;1.38;1.10;;;;;;;19.62;72.47;98925.63;5043881;28;20052;-69
2021/06/06 11:15:35;;;;;;;1.17;1.17;;;;;;;19.43;73.34;98930.94;5045738;28;20035;-69
2021/06/06 11:18:17;;;;;;;2.88;2.03;;;;;;;19.41;72.79;98930.13;5043799;28;20025;-70
2021/06/06 11:20:55;;;;;;;1.70;1.60;;;;;;;19.24;73.23;98934.47;5040521;28;20263;-69
2021/06/06 11:23:47;;;;;;;1.10;1.10;;;;;;;19.19;73.26;98929.50;5043615;28;20024;-68
2021/06/06 11:26:24;;;;;;;1.45;1.42;;;;;;;19.42;73.52;98925.78;5045474;28;20148;-69
2021/06/06 11:29:04;;;;;;;1.38;1.30;;;;;;;19.58;71.17;98931.91;5042497;28;20025;-69
2021/06/06 11:31:34;;;;;;;1.42;1.42;;;;;;;19.68;70.62;98929.69;5045313;28;20029;-65
2021/06/06 11:34:08;;;;;;;1.80;1.75;;;;;;;19.93;69.71;98925.75;5041344;28;20052;-65
2021/06/06 11:36:41;;;;;;;1.73;1.53;;;;;;;20.23;69.91;98923.28;5041619;28;20408;-66
2021/06/06 11:39:27;;;;;;;1.52;1.42;;;;;;;20.36;69.23;98928.72;5042516;28;20029;-65
2021/06/06 11:41:53;;;;;;;1.30;1.30;;;;;;;20.03;68.81;98920.88;5045404;28;20036;-66
2021/06/06 11:44:25;;;;;;;3.25;3.03;;;;;;;20.08;70.05;98922.31;5042173;28;20029;-66
2021/06/06 11:47:06;;;;;;;3.15;1.50;;;;;;;19.90;70.04;98918.06;5043213;28;20433;-65
2021/06/06 11:49:49;;;;;;;1.65;1.55;;;;;;;20.19;69.33;98918.31;5042407;28;20250;-65
2021/06/06 11:52:50;;;;;;;1.35;1.30;;;;;;;20.30;69.11;98910.81;5041746;28;20025;-65